sensor_id;sensor_type;location;lat;lon;timestamp;temperature;humidity
28959;DHT22;16066;0.000;0.000;2023-02-01T00:01:26;18.70;42.00
28959;DHT22;16066;0.000;0.000;2023-02-01T00:03:52;18.60;41.90
28959;DHT22;16066;0.000;0.000;2023-02-01T00:06:17;18.60;42.00
28959;DHT22;16066;0.000;0.000;2023-02-01T00:08:43;18.60;42.00
28959;DHT22;16066;0.000;0.000;2023-02-01T00:11:10;18.60;42.00
28959;DHT22;16066;0.000;0.000;2023-02-01T00:13:38;18.60;42.10
28959;DHT22;16066;0.000;0.000;2023-02-01T00:16:14;18.50;42.00
28959;DHT22;16066;0.000;0.000;2023-02-01T00:18:47;18.50;42.00
28959;DHT22;16066;0.000;0.000;2023-02-01T00:21:14;18.50;42.10
28959;DHT22;16066;0.000;0.000;2023-02-01T00:23:40;18.50;42.10
28959;DHT22;16066;0.000;0.000;2023-02-01T00:26:15;18.50;42.10
28959;DHT22;16066;0.000;0.000;2023-02-01T00:28:41;18.40;42.00
28959;DHT22;16066;0.000;0.000;2023-02-01T00:31:06;18.40;42.10
28959;DHT22;16066;0.000;0.000;2023-02-01T00:33:32;18.40;42.10
28959;DHT22;16066;0.000;0.000;2023-02-01T00:36:03;18.40;42.20
28959;DHT22;16066;0.000;0.000;2023-02-01T00:38:30;18.40;42.20
28959;DHT22;16066;0.000;0.000;2023-02-01T00:41:03;18.40;42.30
28959;DHT22;16066;0.000;0.000;2023-02-01T00:43:30;18.40;42.20
28959;DHT22;16066;0.000;0.000;2023-02-01T00:45:56;18.30;42.20
28959;DHT22;16066;0.000;0.000;2023-02-01T00:48:22;18.30;42.20
28959;DHT22;16066;0.000;0.000;2023-02-01T00:50:47;18.30;42.20
28959;DHT22;16066;0.000;0.000;2023-02-01T00:53:13;18.30;42.20
28959;DHT22;16066;0.000;0.000;2023-02-01T00:55:38;18.30;42.20
28959;DHT22;16066;0.000;0.000;2023-02-01T00:58:04;18.30;42.30
28959;DHT22;16066;0.000;0.000;2023-02-01T01:00:32;18.30;42.30
28959;DHT22;16066;0.000;0.000;2023-02-01T01:02:57;18.30;42.30
28959;DHT22;16066;0.000;0.000;2023-02-01T01:05:24;18.30;42.30
28959;DHT22;16066;0.000;0.000;2023-02-01T01:07:49;18.30;42.30
28959;DHT22;16066;0.000;0.000;2023-02-01T01:10:15;18.30;42.30
28959;DHT22;16066;0.000;0.000;2023-02-01T01:12:41;18.30;42.40
28959;DHT22;16066;0.000;0.000;2023-02-01T01:15:07;18.30;42.40
28959;DHT22;16066;0.000;0.000;2023-02-01T01:17:33;18.30;42.50
28959;DHT22;16066;0.000;0.000;2023-02-01T01:19:58;18.20;42.40
28959;DHT22;16066;0.000;0.000;2023-02-01T01:22:24;18.20;42.20
28959;DHT22;16066;0.000;0.000;2023-02-01T01:24:49;18.20;42.30
28959;DHT22;16066;0.000;0.000;2023-02-01T01:27:15;18.20;42.40
28959;DHT22;16066;0.000;0.000;2023-02-01T01:29:40;18.20;42.30
28959;DHT22;16066;0.000;0.000;2023-02-01T01:32:06;18.20;42.30
28959;DHT22;16066;0.000;0.000;2023-02-01T01:34:31;18.20;42.40
28959;DHT22;16066;0.000;0.000;2023-02-01T01:36:57;18.20;42.70
28959;DHT22;16066;0.000;0.000;2023-02-01T01:39:22;18.20;42.50
28959;DHT22;16066;0.000;0.000;2023-02-01T01:41:48;18.20;42.50
28959;DHT22;16066;0.000;0.000;2023-02-01T01:47:17;18.20;42.50
28959;DHT22;16066;0.000;0.000;2023-02-01T01:49:43;18.20;42.40
28959;DHT22;16066;0.000;0.000;2023-02-01T01:52:08;18.20;42.40
28959;DHT22;16066;0.000;0.000;2023-02-01T01:54:47;18.20;42.40
28959;DHT22;16066;0.000;0.000;2023-02-01T01:57:22;18.10;42.30
28959;DHT22;16066;0.000;0.000;2023-02-01T01:59:55;18.20;42.30
28959;DHT22;16066;0.000;0.000;2023-02-01T02:02:23;18.10;42.30
28959;DHT22;16066;0.000;0.000;2023-02-01T02:04:50;18.10;42.30
28959;DHT22;16066;0.000;0.000;2023-02-01T02:07:20;18.10;42.30
28959;DHT22;16066;0.000;0.000;2023-02-01T02:09:46;18.10;42.30
28959;DHT22;16066;0.000;0.000;2023-02-01T02:12:12;18.10;42.30
28959;DHT22;16066;0.000;0.000;2023-02-01T02:14:37;18.10;42.30
28959;DHT22;16066;0.000;0.000;2023-02-01T02:22:40;18.10;42.20
28959;DHT22;16066;0.000;0.000;2023-02-01T02:31:23;18.10;42.20
28959;DHT22;16066;0.000;0.000;2023-02-01T02:34:08;18.00;42.10
28959;DHT22;16066;0.000;0.000;2023-02-01T02:45:18;18.00;42.10
28959;DHT22;16066;0.000;0.000;2023-02-01T02:48:19;18.00;42.20
28959;DHT22;16066;0.000;0.000;2023-02-01T02:56:42;17.90;42.10
28959;DHT22;16066;0.000;0.000;2023-02-01T02:59:28;17.90;42.10
28959;DHT22;16066;0.000;0.000;2023-02-01T03:02:14;17.90;42.10
28959;DHT22;16066;0.000;0.000;2023-02-01T03:04:59;17.90;42.00
28959;DHT22;16066;0.000;0.000;2023-02-01T03:13:07;17.90;42.10
28959;DHT22;16066;0.000;0.000;2023-02-01T03:15:39;17.90;42.10
28959;DHT22;16066;0.000;0.000;2023-02-01T03:18:14;17.90;42.20
28959;DHT22;16066;0.000;0.000;2023-02-01T03:20:46;17.80;42.10
28959;DHT22;16066;0.000;0.000;2023-02-01T03:23:14;17.80;42.10
28959;DHT22;16066;0.000;0.000;2023-02-01T03:25:42;17.80;42.70
28959;DHT22;16066;0.000;0.000;2023-02-01T03:28:08;17.80;42.10
28959;DHT22;16066;0.000;0.000;2023-02-01T03:30:37;17.80;42.10
28959;DHT22;16066;0.000;0.000;2023-02-01T03:33:14;17.80;42.20
28959;DHT22;16066;0.000;0.000;2023-02-01T03:39:04;17.80;42.10
28959;DHT22;16066;0.000;0.000;2023-02-01T03:44:16;17.80;42.20
28959;DHT22;16066;0.000;0.000;2023-02-01T03:49:41;17.80;42.20
28959;DHT22;16066;0.000;0.000;2023-02-01T03:52:13;17.80;42.20
28959;DHT22;16066;0.000;0.000;2023-02-01T03:54:40;17.70;42.00
28959;DHT22;16066;0.000;0.000;2023-02-01T03:57:12;17.70;42.10
28959;DHT22;16066;0.000;0.000;2023-02-01T03:59:40;17.70;42.10
28959;DHT22;16066;0.000;0.000;2023-02-01T04:02:06;17.70;42.10
28959;DHT22;16066;0.000;0.000;2023-02-01T04:04:33;17.70;42.10
28959;DHT22;16066;0.000;0.000;2023-02-01T04:06:59;17.70;42.20
28959;DHT22;16066;0.000;0.000;2023-02-01T04:09:24;17.70;42.20
28959;DHT22;16066;0.000;0.000;2023-02-01T04:11:49;17.70;42.20
28959;DHT22;16066;0.000;0.000;2023-02-01T04:14:15;17.70;42.70
28959;DHT22;16066;0.000;0.000;2023-02-01T04:16:41;17.70;42.00
28959;DHT22;16066;0.000;0.000;2023-02-01T04:19:06;17.70;42.00
28959;DHT22;16066;0.000;0.000;2023-02-01T04:21:32;17.70;42.20
28959;DHT22;16066;0.000;0.000;2023-02-01T04:23:57;17.70;42.20
28959;DHT22;16066;0.000;0.000;2023-02-01T04:26:23;17.70;42.10
28959;DHT22;16066;0.000;0.000;2023-02-01T04:28:48;17.70;42.20
28959;DHT22;16066;0.000;0.000;2023-02-01T04:31:15;17.60;42.10
28959;DHT22;16066;0.000;0.000;2023-02-01T04:33:41;17.60;42.10
28959;DHT22;16066;0.000;0.000;2023-02-01T04:36:07;17.60;42.10
28959;DHT22;16066;0.000;0.000;2023-02-01T04:38:33;17.60;42.10
28959;DHT22;16066;0.000;0.000;2023-02-01T04:40:59;17.60;42.00
28959;DHT22;16066;0.000;0.000;2023-02-01T04:43:25;17.60;42.10
28959;DHT22;16066;0.000;0.000;2023-02-01T04:45:51;17.60;42.20
28959;DHT22;16066;0.000;0.000;2023-02-01T04:48:18;17.60;42.10
28959;DHT22;16066;0.000;0.000;2023-02-01T04:50:45;17.60;42.20
28959;DHT22;16066;0.000;0.000;2023-02-01T04:53:17;17.60;42.20
28959;DHT22;16066;0.000;0.000;2023-02-01T04:55:43;17.60;42.20
28959;DHT22;16066;0.000;0.000;2023-02-01T04:58:09;17.60;42.20
28959;DHT22;16066;0.000;0.000;2023-02-01T05:00:36;17.50;42.20
28959;DHT22;16066;0.000;0.000;2023-02-01T05:03:02;17.50;42.20
28959;DHT22;16066;0.000;0.000;2023-02-01T05:05:28;17.60;42.40
28959;DHT22;16066;0.000;0.000;2023-02-01T05:07:54;17.50;42.30
28959;DHT22;16066;0.000;0.000;2023-02-01T05:10:20;17.60;42.40
28959;DHT22;16066;0.000;0.000;2023-02-01T05:12:46;17.60;42.30
28959;DHT22;16066;0.000;0.000;2023-02-01T05:15:31;17.50;42.30
28959;DHT22;16066;0.000;0.000;2023-02-01T05:17:57;17.60;42.70
28959;DHT22;16066;0.000;0.000;2023-02-01T05:20:23;17.50;42.80
28959;DHT22;16066;0.000;0.000;2023-02-01T05:22:48;17.60;42.70
28959;DHT22;16066;0.000;0.000;2023-02-01T05:25:14;17.60;42.80
28959;DHT22;16066;0.000;0.000;2023-02-01T05:27:40;17.70;42.80
28959;DHT22;16066;0.000;0.000;2023-02-01T05:30:06;17.80;42.90
28959;DHT22;16066;0.000;0.000;2023-02-01T05:32:32;17.80;42.70
28959;DHT22;16066;0.000;0.000;2023-02-01T05:34:58;17.90;42.70
28959;DHT22;16066;0.000;0.000;2023-02-01T05:37:23;18.00;42.60
28959;DHT22;16066;0.000;0.000;2023-02-01T05:39:49;18.00;42.50
28959;DHT22;16066;0.000;0.000;2023-02-01T05:42:14;18.10;42.40
28959;DHT22;16066;0.000;0.000;2023-02-01T05:44:40;18.20;42.50
28959;DHT22;16066;0.000;0.000;2023-02-01T05:47:06;18.30;42.40
28959;DHT22;16066;0.000;0.000;2023-02-01T05:49:31;18.40;42.90
28959;DHT22;16066;0.000;0.000;2023-02-01T05:51:57;18.50;42.20
28959;DHT22;16066;0.000;0.000;2023-02-01T05:54:22;18.60;42.20
28959;DHT22;16066;0.000;0.000;2023-02-01T05:56:48;18.60;42.00
28959;DHT22;16066;0.000;0.000;2023-02-01T05:59:13;18.70;42.00
28959;DHT22;16066;0.000;0.000;2023-02-01T06:01:39;18.80;42.00
28959;DHT22;16066;0.000;0.000;2023-02-01T06:04:04;18.90;41.80
28959;DHT22;16066;0.000;0.000;2023-02-01T06:06:30;18.90;41.70
28959;DHT22;16066;0.000;0.000;2023-02-01T06:08:55;19.00;41.60
28959;DHT22;16066;0.000;0.000;2023-02-01T06:11:21;19.00;41.50
28959;DHT22;16066;0.000;0.000;2023-02-01T06:13:46;19.10;41.50
28959;DHT22;16066;0.000;0.000;2023-02-01T06:16:12;19.20;41.40
28959;DHT22;16066;0.000;0.000;2023-02-01T06:18:41;19.20;41.20
28959;DHT22;16066;0.000;0.000;2023-02-01T06:21:06;19.30;41.10
28959;DHT22;16066;0.000;0.000;2023-02-01T06:23:32;19.30;41.10
28959;DHT22;16066;0.000;0.000;2023-02-01T06:26:03;19.40;41.00
28959;DHT22;16066;0.000;0.000;2023-02-01T06:28:30;19.40;40.90
28959;DHT22;16066;0.000;0.000;2023-02-01T06:30:56;19.40;40.70
28959;DHT22;16066;0.000;0.000;2023-02-01T06:33:26;19.50;40.70
28959;DHT22;16066;0.000;0.000;2023-02-01T06:35:58;19.50;40.50
28959;DHT22;16066;0.000;0.000;2023-02-01T06:38:25;19.60;40.40
28959;DHT22;16066;0.000;0.000;2023-02-01T06:40:56;19.60;40.40
28959;DHT22;16066;0.000;0.000;2023-02-01T06:43:23;19.60;40.40
28959;DHT22;16066;0.000;0.000;2023-02-01T06:45:49;19.60;40.40
28959;DHT22;16066;0.000;0.000;2023-02-01T06:48:14;19.60;40.30
28959;DHT22;16066;0.000;0.000;2023-02-01T06:50:40;19.60;40.30
28959;DHT22;16066;0.000;0.000;2023-02-01T06:53:05;19.70;40.30
28959;DHT22;16066;0.000;0.000;2023-02-01T06:55:31;19.70;40.00
28959;DHT22;16066;0.000;0.000;2023-02-01T06:57:56;19.70;39.90
28959;DHT22;16066;0.000;0.000;2023-02-01T07:00:23;19.70;40.00
28959;DHT22;16066;0.000;0.000;2023-02-01T07:02:49;19.70;39.90
28959;DHT22;16066;0.000;0.000;2023-02-01T07:05:15;19.70;39.90
28959;DHT22;16066;0.000;0.000;2023-02-01T07:07:40;19.60;39.80
28959;DHT22;16066;0.000;0.000;2023-02-01T07:10:06;19.60;39.90
28959;DHT22;16066;0.000;0.000;2023-02-01T07:12:31;19.60;40.00
28959;DHT22;16066;0.000;0.000;2023-02-01T07:14:57;19.60;40.00
28959;DHT22;16066;0.000;0.000;2023-02-01T07:17:23;19.60;40.00
28959;DHT22;16066;0.000;0.000;2023-02-01T07:19:48;19.50;40.00
28959;DHT22;16066;0.000;0.000;2023-02-01T07:22:17;19.50;40.10
28959;DHT22;16066;0.000;0.000;2023-02-01T07:24:42;19.50;40.20
28959;DHT22;16066;0.000;0.000;2023-02-01T07:27:08;19.50;40.60
28959;DHT22;16066;0.000;0.000;2023-02-01T07:29:33;19.50;41.00
28959;DHT22;16066;0.000;0.000;2023-02-01T07:31:59;19.50;40.90
28959;DHT22;16066;0.000;0.000;2023-02-01T07:34:25;19.50;40.80
28959;DHT22;16066;0.000;0.000;2023-02-01T07:36:51;19.50;41.10
28959;DHT22;16066;0.000;0.000;2023-02-01T07:39:16;19.40;41.60
28959;DHT22;16066;0.000;0.000;2023-02-01T07:41:42;19.40;41.60
28959;DHT22;16066;0.000;0.000;2023-02-01T07:44:07;19.40;41.70
28959;DHT22;16066;0.000;0.000;2023-02-01T07:46:33;19.40;41.90
28959;DHT22;16066;0.000;0.000;2023-02-01T07:48:58;19.40;42.10
28959;DHT22;16066;0.000;0.000;2023-02-01T07:51:24;19.40;42.30
28959;DHT22;16066;0.000;0.000;2023-02-01T07:53:49;19.40;42.20
28959;DHT22;16066;0.000;0.000;2023-02-01T07:56:17;19.40;42.30
28959;DHT22;16066;0.000;0.000;2023-02-01T07:58:50;19.40;42.40
28959;DHT22;16066;0.000;0.000;2023-02-01T08:01:21;19.30;42.30
28959;DHT22;16066;0.000;0.000;2023-02-01T08:06:17;19.30;42.40
28959;DHT22;16066;0.000;0.000;2023-02-01T08:08:45;19.30;42.50
28959;DHT22;16066;0.000;0.000;2023-02-01T08:11:10;19.30;42.30
28959;DHT22;16066;0.000;0.000;2023-02-01T08:13:36;19.30;42.30
28959;DHT22;16066;0.000;0.000;2023-02-01T08:16:04;19.20;42.20
28959;DHT22;16066;0.000;0.000;2023-02-01T08:18:29;19.20;42.00
28959;DHT22;16066;0.000;0.000;2023-02-01T08:20:55;19.20;42.00
28959;DHT22;16066;0.000;0.000;2023-02-01T08:23:21;19.30;42.00
28959;DHT22;16066;0.000;0.000;2023-02-01T08:25:47;19.30;41.90
28959;DHT22;16066;0.000;0.000;2023-02-01T08:28:13;19.30;41.80
28959;DHT22;16066;0.000;0.000;2023-02-01T08:30:39;19.30;41.70
28959;DHT22;16066;0.000;0.000;2023-02-01T08:33:07;19.30;41.60
28959;DHT22;16066;0.000;0.000;2023-02-01T08:35:35;19.30;41.40
28959;DHT22;16066;0.000;0.000;2023-02-01T08:38:01;19.40;41.60
28959;DHT22;16066;0.000;0.000;2023-02-01T08:40:26;19.30;41.50
28959;DHT22;16066;0.000;0.000;2023-02-01T08:42:52;19.30;41.50
28959;DHT22;16066;0.000;0.000;2023-02-01T08:45:19;19.30;43.10
28959;DHT22;16066;0.000;0.000;2023-02-01T08:47:45;19.40;42.20
28959;DHT22;16066;0.000;0.000;2023-02-01T08:50:12;19.40;42.50
28959;DHT22;16066;0.000;0.000;2023-02-01T08:52:38;19.40;42.40
28959;DHT22;16066;0.000;0.000;2023-02-01T08:55:05;19.40;42.20
28959;DHT22;16066;0.000;0.000;2023-02-01T08:57:31;19.40;42.20
28959;DHT22;16066;0.000;0.000;2023-02-01T08:59:57;19.40;42.50
28959;DHT22;16066;0.000;0.000;2023-02-01T09:02:22;19.40;42.10
28959;DHT22;16066;0.000;0.000;2023-02-01T09:04:48;19.40;42.20
28959;DHT22;16066;0.000;0.000;2023-02-01T09:07:13;19.40;42.50
28959;DHT22;16066;0.000;0.000;2023-02-01T09:09:39;19.50;42.70
28959;DHT22;16066;0.000;0.000;2023-02-01T09:12:05;19.50;43.20
28959;DHT22;16066;0.000;0.000;2023-02-01T09:14:30;19.50;42.40
28959;DHT22;16066;0.000;0.000;2023-02-01T09:16:56;19.50;42.10
28959;DHT22;16066;0.000;0.000;2023-02-01T09:19:21;19.50;42.00
28959;DHT22;16066;0.000;0.000;2023-02-01T09:21:47;19.50;41.80
28959;DHT22;16066;0.000;0.000;2023-02-01T09:24:13;19.50;41.60
28959;DHT22;16066;0.000;0.000;2023-02-01T09:26:39;19.50;41.80
28959;DHT22;16066;0.000;0.000;2023-02-01T09:29:05;19.50;41.90
28959;DHT22;16066;0.000;0.000;2023-02-01T09:31:37;19.40;41.90
28959;DHT22;16066;0.000;0.000;2023-02-01T09:34:04;19.50;42.20
28959;DHT22;16066;0.000;0.000;2023-02-01T09:36:30;19.50;42.40
28959;DHT22;16066;0.000;0.000;2023-02-01T09:38:55;19.50;42.40
28959;DHT22;16066;0.000;0.000;2023-02-01T09:44:17;19.50;42.30
28959;DHT22;16066;0.000;0.000;2023-02-01T09:46:47;19.50;42.20
28959;DHT22;16066;0.000;0.000;2023-02-01T09:49:19;19.50;42.00
28959;DHT22;16066;0.000;0.000;2023-02-01T09:51:49;19.50;42.10
28959;DHT22;16066;0.000;0.000;2023-02-01T09:54:22;19.60;42.20
28959;DHT22;16066;0.000;0.000;2023-02-01T09:57:06;19.60;42.10
28959;DHT22;16066;0.000;0.000;2023-02-01T09:59:47;19.50;41.80
28959;DHT22;16066;0.000;0.000;2023-02-01T10:02:22;19.50;41.90
28959;DHT22;16066;0.000;0.000;2023-02-01T10:04:49;19.50;42.00
28959;DHT22;16066;0.000;0.000;2023-02-01T10:10:23;19.50;42.20
28959;DHT22;16066;0.000;0.000;2023-02-01T10:13:24;19.50;42.10
28959;DHT22;16066;0.000;0.000;2023-02-01T10:16:07;19.50;42.10
28959;DHT22;16066;0.000;0.000;2023-02-01T10:24:02;19.50;42.00
28959;DHT22;16066;0.000;0.000;2023-02-01T10:26:37;19.50;42.00
28959;DHT22;16066;0.000;0.000;2023-02-01T10:29:14;19.50;42.00
28959;DHT22;16066;0.000;0.000;2023-02-01T10:31:41;19.60;42.50
28959;DHT22;16066;0.000;0.000;2023-02-01T10:34:23;19.50;41.80
28959;DHT22;16066;0.000;0.000;2023-02-01T10:37:02;19.60;41.80
28959;DHT22;16066;0.000;0.000;2023-02-01T10:39:33;19.60;41.70
28959;DHT22;16066;0.000;0.000;2023-02-01T10:42:00;19.60;41.80
28959;DHT22;16066;0.000;0.000;2023-02-01T10:44:28;19.60;41.70
28959;DHT22;16066;0.000;0.000;2023-02-01T10:46:55;19.60;41.70
28959;DHT22;16066;0.000;0.000;2023-02-01T10:49:26;19.60;41.70
28959;DHT22;16066;0.000;0.000;2023-02-01T10:52:20;19.60;41.70
28959;DHT22;16066;0.000;0.000;2023-02-01T10:54:46;19.60;41.60
28959;DHT22;16066;0.000;0.000;2023-02-01T10:57:25;19.60;41.60
28959;DHT22;16066;0.000;0.000;2023-02-01T10:59:52;19.60;41.60
28959;DHT22;16066;0.000;0.000;2023-02-01T11:04:59;19.60;41.60
28959;DHT22;16066;0.000;0.000;2023-02-01T11:07:26;19.60;41.60
28959;DHT22;16066;0.000;0.000;2023-02-01T11:09:54;19.60;41.60
28959;DHT22;16066;0.000;0.000;2023-02-01T11:12:35;19.60;41.50
28959;DHT22;16066;0.000;0.000;2023-02-01T11:17:46;19.60;41.40
28959;DHT22;16066;0.000;0.000;2023-02-01T11:20:21;19.60;41.50
28959;DHT22;16066;0.000;0.000;2023-02-01T11:22:59;19.60;41.50
28959;DHT22;16066;0.000;0.000;2023-02-01T11:25:25;19.60;41.80
28959;DHT22;16066;0.000;0.000;2023-02-01T11:27:53;19.60;41.80
28959;DHT22;16066;0.000;0.000;2023-02-01T11:30:32;19.60;42.30
28959;DHT22;16066;0.000;0.000;2023-02-01T11:33:00;19.70;41.80
28959;DHT22;16066;0.000;0.000;2023-02-01T11:35:27;19.70;41.70
28959;DHT22;16066;0.000;0.000;2023-02-01T11:37:58;19.70;41.60
28959;DHT22;16066;0.000;0.000;2023-02-01T11:40:34;19.60;41.60
28959;DHT22;16066;0.000;0.000;2023-02-01T11:45:31;19.60;42.20
28959;DHT22;16066;0.000;0.000;2023-02-01T11:48:00;19.60;41.60
28959;DHT22;16066;0.000;0.000;2023-02-01T11:50:37;19.60;41.60
28959;DHT22;16066;0.000;0.000;2023-02-01T11:53:55;19.60;41.70
28959;DHT22;16066;0.000;0.000;2023-02-01T12:02:08;19.60;41.60
28959;DHT22;16066;0.000;0.000;2023-02-01T12:08:15;19.60;41.20
28959;DHT22;16066;0.000;0.000;2023-02-01T12:11:16;19.50;41.20
28959;DHT22;16066;0.000;0.000;2023-02-01T12:31:15;19.40;41.50
28959;DHT22;16066;0.000;0.000;2023-02-01T12:37:12;19.40;41.60
28959;DHT22;16066;0.000;0.000;2023-02-01T12:40:17;19.50;41.50
28959;DHT22;16066;0.000;0.000;2023-02-01T12:42:59;19.50;41.60
28959;DHT22;16066;0.000;0.000;2023-02-01T12:50:56;19.60;41.50
28959;DHT22;16066;0.000;0.000;2023-02-01T12:53:31;19.60;41.50
28959;DHT22;16066;0.000;0.000;2023-02-01T12:56:03;19.60;41.40
28959;DHT22;16066;0.000;0.000;2023-02-01T12:58:53;19.70;41.40
28959;DHT22;16066;0.000;0.000;2023-02-01T13:01:36;19.70;41.30
28959;DHT22;16066;0.000;0.000;2023-02-01T13:04:17;19.70;41.30
28959;DHT22;16066;0.000;0.000;2023-02-01T13:06:48;19.70;41.30
28959;DHT22;16066;0.000;0.000;2023-02-01T13:09:22;19.70;41.20
28959;DHT22;16066;0.000;0.000;2023-02-01T13:11:51;19.70;41.50
28959;DHT22;16066;0.000;0.000;2023-02-01T13:14:33;19.70;41.20
28959;DHT22;16066;0.000;0.000;2023-02-01T13:17:03;19.70;41.20
28959;DHT22;16066;0.000;0.000;2023-02-01T13:22:12;19.80;41.30
28959;DHT22;16066;0.000;0.000;2023-02-01T13:27:22;19.80;41.30
28959;DHT22;16066;0.000;0.000;2023-02-01T13:30:04;19.80;41.40
28959;DHT22;16066;0.000;0.000;2023-02-01T13:35:44;19.80;41.30
28959;DHT22;16066;0.000;0.000;2023-02-01T13:43:19;19.80;41.40
28959;DHT22;16066;0.000;0.000;2023-02-01T13:45:53;19.80;41.30
28959;DHT22;16066;0.000;0.000;2023-02-01T13:48:24;19.80;41.30
28959;DHT22;16066;0.000;0.000;2023-02-01T13:50:57;19.70;41.20
28959;DHT22;16066;0.000;0.000;2023-02-01T13:53:30;19.70;41.10
28959;DHT22;16066;0.000;0.000;2023-02-01T13:55:59;19.70;41.00
28959;DHT22;16066;0.000;0.000;2023-02-01T13:58:32;19.70;41.10
28959;DHT22;16066;0.000;0.000;2023-02-01T14:03:51;19.70;41.70
28959;DHT22;16066;0.000;0.000;2023-02-01T14:11:57;19.70;41.80
28959;DHT22;16066;0.000;0.000;2023-02-01T14:19:22;19.70;42.00
28959;DHT22;16066;0.000;0.000;2023-02-01T14:21:51;19.70;42.00
28959;DHT22;16066;0.000;0.000;2023-02-01T14:24:30;19.70;41.90
28959;DHT22;16066;0.000;0.000;2023-02-01T14:27:01;19.70;42.00
28959;DHT22;16066;0.000;0.000;2023-02-01T14:29:34;19.70;42.10
28959;DHT22;16066;0.000;0.000;2023-02-01T14:32:14;19.70;42.10
28959;DHT22;16066;0.000;0.000;2023-02-01T14:40:02;19.80;42.30
28959;DHT22;16066;0.000;0.000;2023-02-01T14:42:46;19.80;42.30
28959;DHT22;16066;0.000;0.000;2023-02-01T14:55:34;19.80;42.40
28959;DHT22;16066;0.000;0.000;2023-02-01T14:58:02;19.80;42.20
28959;DHT22;16066;0.000;0.000;2023-02-01T15:00:31;19.80;42.10
28959;DHT22;16066;0.000;0.000;2023-02-01T15:03:25;19.80;41.90
28959;DHT22;16066;0.000;0.000;2023-02-01T15:05:57;19.80;41.80
28959;DHT22;16066;0.000;0.000;2023-02-01T15:08:33;19.70;41.60
28959;DHT22;16066;0.000;0.000;2023-02-01T15:11:02;19.70;41.50
28959;DHT22;16066;0.000;0.000;2023-02-01T15:13:31;19.70;41.30
28959;DHT22;16066;0.000;0.000;2023-02-01T15:16:05;19.70;41.40
28959;DHT22;16066;0.000;0.000;2023-02-01T15:18:32;19.70;41.30
28959;DHT22;16066;0.000;0.000;2023-02-01T15:20:59;19.70;41.30
28959;DHT22;16066;0.000;0.000;2023-02-01T15:23:25;19.70;41.50
28959;DHT22;16066;0.000;0.000;2023-02-01T15:25:50;19.70;41.60
28959;DHT22;16066;0.000;0.000;2023-02-01T15:28:17;19.80;41.60
28959;DHT22;16066;0.000;0.000;2023-02-01T15:31:01;19.80;41.60
28959;DHT22;16066;0.000;0.000;2023-02-01T15:33:28;19.80;41.70
28959;DHT22;16066;0.000;0.000;2023-02-01T15:36:07;19.80;41.70
28959;DHT22;16066;0.000;0.000;2023-02-01T15:38:39;19.80;41.70
28959;DHT22;16066;0.000;0.000;2023-02-01T15:41:19;19.80;41.90
28959;DHT22;16066;0.000;0.000;2023-02-01T15:46:30;19.70;41.90
28959;DHT22;16066;0.000;0.000;2023-02-01T15:48:56;19.70;42.00
28959;DHT22;16066;0.000;0.000;2023-02-01T15:51:24;19.70;42.10
28959;DHT22;16066;0.000;0.000;2023-02-01T15:53:59;19.70;42.20
28959;DHT22;16066;0.000;0.000;2023-02-01T15:56:28;19.70;42.30
28959;DHT22;16066;0.000;0.000;2023-02-01T15:58:58;19.70;42.30
28959;DHT22;16066;0.000;0.000;2023-02-01T16:01:24;19.70;42.60
28959;DHT22;16066;0.000;0.000;2023-02-01T16:04:02;19.80;42.80
28959;DHT22;16066;0.000;0.000;2023-02-01T16:06:30;19.80;42.90
28959;DHT22;16066;0.000;0.000;2023-02-01T16:11:33;19.80;42.90
28959;DHT22;16066;0.000;0.000;2023-02-01T16:14:05;19.80;42.80
28959;DHT22;16066;0.000;0.000;2023-02-01T16:16:30;19.80;42.70
28959;DHT22;16066;0.000;0.000;2023-02-01T16:18:56;19.80;42.50
28959;DHT22;16066;0.000;0.000;2023-02-01T16:21:21;19.80;42.60
28959;DHT22;16066;0.000;0.000;2023-02-01T16:23:51;19.80;42.40
28959;DHT22;16066;0.000;0.000;2023-02-01T16:26:17;19.80;42.40
28959;DHT22;16066;0.000;0.000;2023-02-01T16:28:43;19.90;42.40
28959;DHT22;16066;0.000;0.000;2023-02-01T16:31:12;19.90;42.50
28959;DHT22;16066;0.000;0.000;2023-02-01T16:33:50;19.90;42.30
28959;DHT22;16066;0.000;0.000;2023-02-01T16:36:17;19.90;42.30
28959;DHT22;16066;0.000;0.000;2023-02-01T16:38:42;19.90;42.20
28959;DHT22;16066;0.000;0.000;2023-02-01T16:41:18;19.90;42.20
28959;DHT22;16066;0.000;0.000;2023-02-01T16:43:44;19.90;42.20
28959;DHT22;16066;0.000;0.000;2023-02-01T16:46:15;19.90;42.10
28959;DHT22;16066;0.000;0.000;2023-02-01T16:48:42;19.90;42.00
28959;DHT22;16066;0.000;0.000;2023-02-01T16:51:13;19.90;42.50
28959;DHT22;16066;0.000;0.000;2023-02-01T16:53:39;19.80;41.80
28959;DHT22;16066;0.000;0.000;2023-02-01T16:56:16;19.80;41.90
28959;DHT22;16066;0.000;0.000;2023-02-01T16:58:42;19.80;42.00
28959;DHT22;16066;0.000;0.000;2023-02-01T17:01:13;19.80;42.10
28959;DHT22;16066;0.000;0.000;2023-02-01T17:03:39;19.80;42.10
28959;DHT22;16066;0.000;0.000;2023-02-01T17:06:07;19.80;42.00
28959;DHT22;16066;0.000;0.000;2023-02-01T17:08:39;19.80;41.90
28959;DHT22;16066;0.000;0.000;2023-02-01T17:11:06;19.80;41.90
28959;DHT22;16066;0.000;0.000;2023-02-01T17:13:33;19.90;42.00
28959;DHT22;16066;0.000;0.000;2023-02-01T17:16:02;19.80;42.60
28959;DHT22;16066;0.000;0.000;2023-02-01T17:18:31;19.80;42.00
28959;DHT22;16066;0.000;0.000;2023-02-01T17:20:58;19.90;42.10
28959;DHT22;16066;0.000;0.000;2023-02-01T17:23:24;19.90;42.30
28959;DHT22;16066;0.000;0.000;2023-02-01T17:25:50;19.90;42.20
28959;DHT22;16066;0.000;0.000;2023-02-01T17:28:16;19.90;42.20
28959;DHT22;16066;0.000;0.000;2023-02-01T17:30:42;19.90;42.20
28959;DHT22;16066;0.000;0.000;2023-02-01T17:33:30;19.90;42.20
28959;DHT22;16066;0.000;0.000;2023-02-01T17:35:56;19.90;42.10
28959;DHT22;16066;0.000;0.000;2023-02-01T17:38:23;19.90;42.00
28959;DHT22;16066;0.000;0.000;2023-02-01T17:40:49;19.90;42.20
28959;DHT22;16066;0.000;0.000;2023-02-01T17:43:22;19.90;42.30
28959;DHT22;16066;0.000;0.000;2023-02-01T17:48:28;19.90;42.30
28959;DHT22;16066;0.000;0.000;2023-02-01T17:50:54;19.90;42.30
28959;DHT22;16066;0.000;0.000;2023-02-01T17:53:27;19.90;42.90
28959;DHT22;16066;0.000;0.000;2023-02-01T17:55:53;19.90;42.30
28959;DHT22;16066;0.000;0.000;2023-02-01T17:58:19;19.90;42.30
28959;DHT22;16066;0.000;0.000;2023-02-01T18:00:46;19.90;42.20
28959;DHT22;16066;0.000;0.000;2023-02-01T18:03:23;19.80;42.00
28959;DHT22;16066;0.000;0.000;2023-02-01T18:05:51;19.80;41.80
28959;DHT22;16066;0.000;0.000;2023-02-01T18:08:18;19.90;41.80
28959;DHT22;16066;0.000;0.000;2023-02-01T18:10:50;19.90;42.00
28959;DHT22;16066;0.000;0.000;2023-02-01T18:13:16;19.90;42.00
28959;DHT22;16066;0.000;0.000;2023-02-01T18:15:41;19.90;42.00
28959;DHT22;16066;0.000;0.000;2023-02-01T18:18:07;19.90;42.00
28959;DHT22;16066;0.000;0.000;2023-02-01T18:20:33;19.90;42.00
28959;DHT22;16066;0.000;0.000;2023-02-01T18:23:00;19.90;42.00
28959;DHT22;16066;0.000;0.000;2023-02-01T18:25:28;19.90;41.90
28959;DHT22;16066;0.000;0.000;2023-02-01T18:27:55;19.90;42.00
28959;DHT22;16066;0.000;0.000;2023-02-01T18:30:23;19.90;42.10